createdAt,value
2018-04-24T00:00:29.640Z,20.40
2018-04-24T00:01:06.984Z,20.40
2018-04-24T00:01:44.392Z,20.40
2018-04-24T00:02:22.491Z,20.30
2018-04-24T00:02:59.848Z,20.30
2018-04-24T00:03:38.169Z,20.30
2018-04-24T00:04:15.494Z,20.30
2018-04-24T00:04:53.043Z,20.30
2018-04-24T00:05:30.644Z,20.30
2018-04-24T00:06:08.153Z,20.40
2018-04-24T00:06:45.687Z,20.40
2018-04-24T00:07:23.126Z,20.30
2018-04-24T00:08:00.513Z,20.30
2018-04-24T00:08:38.604Z,20.30
2018-04-24T00:09:16.203Z,20.30
2018-04-24T00:09:53.780Z,20.30
2018-04-24T00:10:31.128Z,20.30
2018-04-24T00:11:09.248Z,20.30
2018-04-24T00:11:46.818Z,20.20
2018-04-24T00:12:24.369Z,20.20
2018-04-24T00:13:02.484Z,20.20
2018-04-24T00:13:40.594Z,20.20
2018-04-24T00:14:18.781Z,20.20
2018-04-24T00:14:56.381Z,20.20
2018-04-24T00:15:33.911Z,20.20
2018-04-24T00:16:11.257Z,20.20
2018-04-24T00:16:48.634Z,20.30
2018-04-24T00:17:26.216Z,20.40
2018-04-24T00:18:03.758Z,20.30
2018-04-24T00:18:41.096Z,20.30
2018-04-24T00:19:18.479Z,20.20
2018-04-24T00:19:56.118Z,20.20
2018-04-24T00:20:34.490Z,20.20
2018-04-24T00:21:11.853Z,20.20
2018-04-24T00:21:49.215Z,20.10
2018-04-24T00:22:26.611Z,20.10
2018-04-24T00:23:03.987Z,20.20
2018-04-24T00:23:41.640Z,20.20
2018-04-24T00:24:19.876Z,20.10
2018-04-24T00:24:58.176Z,20.10
2018-04-24T00:25:35.549Z,20.10
2018-04-24T00:26:13.147Z,20.10
2018-04-24T00:26:50.701Z,20.20
2018-04-24T00:27:28.916Z,20.20
2018-04-24T00:28:06.510Z,20.20
2018-04-24T00:28:44.071Z,20.20
2018-04-24T00:29:21.427Z,20.20
2018-04-24T00:29:58.815Z,20.20
2018-04-24T00:30:36.470Z,20.20
2018-04-24T00:31:14.698Z,20.20
2018-04-24T00:31:52.077Z,20.20
2018-04-24T00:32:29.443Z,20.20
2018-04-24T00:33:06.809Z,20.30
2018-04-24T00:33:44.254Z,20.30
2018-04-24T00:34:22.433Z,20.20
2018-04-24T00:34:59.996Z,20.20
2018-04-24T00:35:37.605Z,20.20
2018-04-24T00:36:15.170Z,20.20
2018-04-24T00:36:52.522Z,20.20
2018-04-24T00:37:30.658Z,20.20
2018-04-24T00:38:08.130Z,20.20
2018-04-24T00:38:45.649Z,20.20
2018-04-24T00:39:23.055Z,20.20
2018-04-24T00:40:00.418Z,20.20
2018-04-24T00:40:37.787Z,20.20
2018-04-24T00:41:15.170Z,20.20
2018-04-24T00:41:53.297Z,20.30
2018-04-24T00:42:30.789Z,20.30
2018-04-24T00:43:08.335Z,20.30
2018-04-24T00:43:45.902Z,20.30
2018-04-24T00:44:23.292Z,20.30
2018-04-24T00:45:00.689Z,20.30
2018-04-24T00:45:38.271Z,20.30
2018-04-24T00:46:15.886Z,20.20
2018-04-24T00:46:53.410Z,20.20
2018-04-24T00:47:30.928Z,20.20
2018-04-24T00:48:08.632Z,20.20
2018-04-24T00:48:46.187Z,20.20
2018-04-24T00:49:23.747Z,20.20
2018-04-24T00:50:01.106Z,20.20
2018-04-24T00:50:39.410Z,20.20
2018-04-24T00:51:17.000Z,20.20
2018-04-24T00:51:54.493Z,20.20
2018-04-24T00:52:32.585Z,20.20
2018-04-24T00:53:09.947Z,20.20
2018-04-24T00:53:47.462Z,20.30
2018-04-24T00:54:25.007Z,20.30
2018-04-24T00:55:02.364Z,20.20
2018-04-24T00:55:39.887Z,20.20
2018-04-24T00:56:18.072Z,20.20
2018-04-24T00:56:55.430Z,20.20
2018-04-24T00:57:32.951Z,20.20
2018-04-24T00:58:11.042Z,20.20
2018-04-24T00:58:48.403Z,20.20
2018-04-24T00:59:26.703Z,20.30
2018-04-24T01:00:04.304Z,20.20
2018-04-24T01:00:41.868Z,20.20
2018-04-24T01:01:19.488Z,20.20
2018-04-24T01:01:57.011Z,20.20
2018-04-24T01:02:34.367Z,20.20
2018-04-24T01:03:11.936Z,20.20
2018-04-24T01:03:49.340Z,20.20
2018-04-24T01:04:26.780Z,20.20
2018-04-24T01:05:04.302Z,20.20
2018-04-24T01:05:41.909Z,20.20
2018-04-24T01:06:19.499Z,20.20
2018-04-24T01:06:57.050Z,20.30
2018-04-24T01:07:34.467Z,20.20
2018-04-24T01:08:11.901Z,20.30
2018-04-24T01:08:50.217Z,20.30
2018-04-24T01:09:27.774Z,20.30
2018-04-24T01:10:05.348Z,20.30
2018-04-24T01:10:42.660Z,20.30
2018-04-24T01:11:20.276Z,20.30
2018-04-24T01:11:57.832Z,20.30
2018-04-24T01:12:35.283Z,20.30
2018-04-24T01:13:12.739Z,20.30
2018-04-24T01:13:50.268Z,20.20
2018-04-24T01:14:27.840Z,20.20
2018-04-24T01:15:05.382Z,20.30
2018-04-24T01:15:43.483Z,20.20
2018-04-24T01:16:21.083Z,20.20
2018-04-24T01:16:58.665Z,20.20
2018-04-24T01:17:36.182Z,20.20
2018-04-24T01:18:13.728Z,20.10
2018-04-24T01:18:51.120Z,20.10
2018-04-24T01:19:28.545Z,20.10
2018-04-24T01:20:06.841Z,20.10
2018-04-24T01:20:44.339Z,20.10
2018-04-24T01:21:21.881Z,20.10
2018-04-24T01:21:59.450Z,20.10
2018-04-24T01:22:37.121Z,20.10
2018-04-24T01:23:14.652Z,20.10
2018-04-24T01:23:51.950Z,20.00
2018-04-24T01:24:29.332Z,20.00
2018-04-24T01:25:07.396Z,20.10
2018-04-24T01:25:44.788Z,20.00
2018-04-24T01:26:22.269Z,20.00
2018-04-24T01:26:59.755Z,20.00
2018-04-24T01:27:37.326Z,20.10
2018-04-24T01:28:15.519Z,20.00
2018-04-24T01:28:52.863Z,20.00
2018-04-24T01:29:30.978Z,19.90
2018-04-24T01:30:08.570Z,19.90
2018-04-24T01:30:46.117Z,19.90
2018-04-24T01:31:23.538Z,19.90
2018-04-24T01:32:01.106Z,19.90
2018-04-24T01:32:38.587Z,19.90
2018-04-24T01:33:16.695Z,19.90
2018-04-24T01:33:54.114Z,19.90
2018-04-24T01:34:31.459Z,20.00
2018-04-24T01:35:09.726Z,20.00
2018-04-24T01:35:47.809Z,19.90
2018-04-24T01:36:25.942Z,19.90
2018-04-24T01:37:03.517Z,19.90
2018-04-24T01:37:41.097Z,19.90
2018-04-24T01:38:18.643Z,19.90
2018-04-24T01:38:56.290Z,19.90
2018-04-24T01:39:33.698Z,19.90
2018-04-24T01:40:11.818Z,20.00
2018-04-24T01:40:49.433Z,20.00
2018-04-24T01:41:26.951Z,20.00
2018-04-24T01:42:04.482Z,20.00
2018-04-24T01:42:42.023Z,20.00
2018-04-24T01:43:19.565Z,20.00
2018-04-24T01:43:57.007Z,20.00
2018-04-24T01:44:34.611Z,20.00
2018-04-24T01:45:12.186Z,20.00
2018-04-24T01:45:49.734Z,20.00
2018-04-24T01:46:27.113Z,19.90
2018-04-24T01:47:04.668Z,20.00
2018-04-24T01:47:42.063Z,20.00
2018-04-24T01:48:19.616Z,20.00
2018-04-24T01:48:56.974Z,19.90
2018-04-24T01:49:35.341Z,19.90
2018-04-24T01:50:13.514Z,19.90
2018-04-24T01:50:51.095Z,19.90
2018-04-24T01:51:29.225Z,19.80
2018-04-24T01:52:06.644Z,19.80
2018-04-24T01:52:43.973Z,19.80
2018-04-24T01:53:21.320Z,19.80
2018-04-24T01:53:59.249Z,19.80
2018-04-24T01:54:36.783Z,19.80
2018-04-24T01:55:14.355Z,19.80
2018-04-24T01:55:51.863Z,19.80
2018-04-24T01:56:29.500Z,19.80
2018-04-24T01:57:06.824Z,19.80
2018-04-24T01:57:44.240Z,19.80
2018-04-24T01:58:21.762Z,19.90
2018-04-24T01:58:59.365Z,19.90
2018-04-24T01:59:36.973Z,19.90
2018-04-24T02:00:14.291Z,19.90
2018-04-24T02:00:51.640Z,19.80
2018-04-24T02:01:29.198Z,19.80
2018-04-24T02:02:06.594Z,19.80
2018-04-24T02:02:44.939Z,19.80
2018-04-24T02:03:22.495Z,19.80
2018-04-24T02:03:59.994Z,19.80
2018-04-24T02:04:38.106Z,19.80
2018-04-24T02:05:15.699Z,19.80
2018-04-24T02:05:53.272Z,19.80
2018-04-24T02:06:31.532Z,19.80
2018-04-24T02:07:08.906Z,19.80
2018-04-24T02:07:46.282Z,19.80
2018-04-24T02:08:23.790Z,19.70
2018-04-24T02:09:01.354Z,19.80
2018-04-24T02:09:38.713Z,19.80
2018-04-24T02:10:16.822Z,19.80
2018-04-24T02:10:54.196Z,19.80
2018-04-24T02:11:31.569Z,19.90
2018-04-24T02:12:09.124Z,19.80
2018-04-24T02:12:46.695Z,19.80
2018-04-24T02:13:24.226Z,19.80
2018-04-24T02:14:01.682Z,19.80
2018-04-24T02:14:39.188Z,19.80
2018-04-24T02:15:16.797Z,19.80
2018-04-24T02:15:54.359Z,19.80
2018-04-24T02:16:31.942Z,19.80
2018-04-24T02:17:10.258Z,19.80
2018-04-24T02:17:47.753Z,19.80
2018-04-24T02:18:25.269Z,19.80
2018-04-24T02:19:03.479Z,19.80
2018-04-24T02:19:40.839Z,19.80
2018-04-24T02:20:18.219Z,19.80
2018-04-24T02:20:55.709Z,19.80
2018-04-24T02:21:33.846Z,19.80
2018-04-24T02:22:11.396Z,19.80
2018-04-24T02:22:49.051Z,19.80
2018-04-24T02:23:26.618Z,19.80
2018-04-24T02:24:04.258Z,19.80
2018-04-24T02:24:41.803Z,19.80
2018-04-24T02:25:19.169Z,19.80
2018-04-24T02:25:56.667Z,19.80
2018-04-24T02:26:33.982Z,19.80
2018-04-24T02:27:11.585Z,19.80
2018-04-24T02:27:49.020Z,19.80
2018-04-24T02:28:26.397Z,19.80
2018-04-24T02:29:04.003Z,19.80
2018-04-24T02:29:41.467Z,19.80
2018-04-24T02:30:18.898Z,19.70
2018-04-24T02:30:56.518Z,19.70
2018-04-24T02:31:34.106Z,19.70
2018-04-24T02:32:11.655Z,19.70
2018-04-24T02:32:49.269Z,19.80
2018-04-24T02:33:26.760Z,19.80
2018-04-24T02:34:05.044Z,19.80
2018-04-24T02:34:42.636Z,19.80
2018-04-24T02:35:20.196Z,19.80
2018-04-24T02:35:57.646Z,19.70
2018-04-24T02:36:35.193Z,19.70
2018-04-24T02:37:13.362Z,19.80
2018-04-24T02:37:50.926Z,19.70
2018-04-24T02:38:29.205Z,19.70
2018-04-24T02:39:06.693Z,19.70
2018-04-24T02:39:44.275Z,19.70
2018-04-24T02:40:22.649Z,19.70
2018-04-24T02:41:00.468Z,19.70
2018-04-24T02:41:38.026Z,19.70
2018-04-24T02:42:15.393Z,19.70
2018-04-24T02:42:53.574Z,19.60
2018-04-24T02:43:31.075Z,19.70
2018-04-24T02:44:08.710Z,19.60
2018-04-24T02:44:46.264Z,19.70
2018-04-24T02:45:23.752Z,19.70
2018-04-24T02:46:01.329Z,19.70
2018-04-24T02:46:39.608Z,19.70
2018-04-24T02:47:17.229Z,19.70
2018-04-24T02:47:54.572Z,19.70
2018-04-24T02:48:31.962Z,19.70
2018-04-24T02:49:09.523Z,19.70
2018-04-24T02:49:47.119Z,19.70
2018-04-24T02:50:24.702Z,19.70
2018-04-24T02:51:02.260Z,19.70
2018-04-24T02:51:39.549Z,19.70
2018-04-24T02:52:17.140Z,19.70
2018-04-24T02:52:55.330Z,19.70
2018-04-24T02:53:32.916Z,19.70
2018-04-24T02:54:11.204Z,19.70
2018-04-24T02:54:49.420Z,19.70
2018-04-24T02:55:26.775Z,19.70
2018-04-24T02:56:04.871Z,19.60
2018-04-24T02:56:42.209Z,19.60
2018-04-24T02:57:20.355Z,19.50
2018-04-24T02:57:57.908Z,19.50
2018-04-24T02:58:35.364Z,19.60
2018-04-24T02:59:12.754Z,19.60
2018-04-24T02:59:50.166Z,19.60
2018-04-24T03:00:28.270Z,19.50
2018-04-24T03:01:05.820Z,19.50
2018-04-24T03:01:43.331Z,19.60
2018-04-24T03:02:20.933Z,19.50
2018-04-24T03:02:58.474Z,19.50
2018-04-24T03:03:35.808Z,19.50
2018-04-24T03:04:13.444Z,19.50
2018-04-24T03:04:50.902Z,19.50
2018-04-24T03:05:28.358Z,19.50
2018-04-24T03:06:05.738Z,19.50
2018-04-24T03:06:43.092Z,19.50
2018-04-24T03:07:20.780Z,19.50
2018-04-24T03:07:58.077Z,19.60
2018-04-24T03:08:36.192Z,19.70
2018-04-24T03:09:14.286Z,19.70
2018-04-24T03:09:52.386Z,19.70
2018-04-24T03:10:29.876Z,19.60
2018-04-24T03:11:07.452Z,19.70
2018-04-24T03:11:45.089Z,19.70
2018-04-24T03:12:22.532Z,19.70
2018-04-24T03:13:00.169Z,19.70
2018-04-24T03:13:37.532Z,19.70
2018-04-24T03:14:15.007Z,19.70
2018-04-24T03:14:52.348Z,19.70
2018-04-24T03:15:29.893Z,19.70
2018-04-24T03:16:07.980Z,19.60
2018-04-24T03:16:46.075Z,19.60
2018-04-24T03:17:23.589Z,19.60
2018-04-24T03:18:01.122Z,19.60
2018-04-24T03:18:39.428Z,19.60
2018-04-24T03:19:17.746Z,19.60
2018-04-24T03:19:55.300Z,19.60
2018-04-24T03:20:32.709Z,19.60
2018-04-24T03:21:10.186Z,19.60
2018-04-24T03:21:47.778Z,19.60
2018-04-24T03:22:25.203Z,19.70
2018-04-24T03:23:02.589Z,19.60
2018-04-24T03:23:39.935Z,19.70
2018-04-24T03:24:17.267Z,19.70
2018-04-24T03:24:55.562Z,19.80
2018-04-24T03:25:33.785Z,19.80
2018-04-24T03:26:11.963Z,19.70
2018-04-24T03:26:49.320Z,19.70
2018-04-24T03:27:27.414Z,19.70
2018-04-24T03:28:04.767Z,19.70
2018-04-24T03:28:42.886Z,19.80
2018-04-24T03:29:20.482Z,19.70
2018-04-24T03:29:58.054Z,19.80
2018-04-24T03:30:35.502Z,19.70
2018-04-24T03:31:13.008Z,19.70
2018-04-24T03:31:50.593Z,19.70
2018-04-24T03:32:28.225Z,19.60
2018-04-24T03:33:05.722Z,19.50
2018-04-24T03:33:43.278Z,19.50
2018-04-24T03:34:20.833Z,19.50
2018-04-24T03:34:58.396Z,19.50
2018-04-24T03:35:35.995Z,19.50
2018-04-24T03:36:13.579Z,19.50
2018-04-24T03:36:51.139Z,19.50
2018-04-24T03:37:28.513Z,19.50
2018-04-24T03:38:05.944Z,19.60
2018-04-24T03:38:44.099Z,19.70
2018-04-24T03:39:22.375Z,19.80
2018-04-24T03:39:59.727Z,19.70
2018-04-24T03:40:37.306Z,19.80
2018-04-24T03:41:15.626Z,19.80
2018-04-24T03:41:53.934Z,19.80
2018-04-24T03:42:31.599Z,19.80
2018-04-24T03:43:09.927Z,19.90
2018-04-24T03:43:48.207Z,19.80
2018-04-24T03:44:25.611Z,19.80
2018-04-24T03:45:02.966Z,19.90
2018-04-24T03:45:40.325Z,19.80
2018-04-24T03:46:18.640Z,19.80
2018-04-24T03:46:56.029Z,19.80
2018-04-24T03:47:33.480Z,19.80
2018-04-24T03:48:10.890Z,19.80
2018-04-24T03:48:48.458Z,19.90
2018-04-24T03:49:25.907Z,19.80
2018-04-24T03:50:03.528Z,19.80
2018-04-24T03:50:41.121Z,19.80
2018-04-24T03:51:18.786Z,19.80
2018-04-24T03:51:56.236Z,19.80
2018-04-24T03:52:33.659Z,19.80
2018-04-24T03:53:11.223Z,19.80
2018-04-24T03:53:48.807Z,19.80
2018-04-24T03:54:26.974Z,19.70
2018-04-24T03:55:04.590Z,19.70
2018-04-24T03:55:42.186Z,19.70
2018-04-24T03:56:19.511Z,19.70
2018-04-24T03:56:56.879Z,19.70
2018-04-24T03:57:35.208Z,19.60
2018-04-24T03:58:12.774Z,19.70
2018-04-24T03:58:50.294Z,19.60
2018-04-24T03:59:27.739Z,19.60
2018-04-24T04:00:05.247Z,19.60
2018-04-24T04:00:42.822Z,19.60
2018-04-24T04:01:20.428Z,19.70
2018-04-24T04:01:57.972Z,19.70
2018-04-24T04:02:35.579Z,19.70
2018-04-24T04:03:13.855Z,19.60
2018-04-24T04:03:51.367Z,19.50
2018-04-24T04:04:28.913Z,19.60
2018-04-24T04:05:06.370Z,19.50
2018-04-24T04:05:43.974Z,19.50
2018-04-24T04:06:21.467Z,19.50
2018-04-24T04:06:58.895Z,19.50
2018-04-24T04:07:36.324Z,19.60
2018-04-24T04:08:13.644Z,19.60
2018-04-24T04:08:51.786Z,19.60
2018-04-24T04:09:29.369Z,19.50
2018-04-24T04:10:06.959Z,19.50
2018-04-24T04:10:44.537Z,19.50
2018-04-24T04:11:22.102Z,19.50
2018-04-24T04:11:59.685Z,19.60
2018-04-24T04:12:37.144Z,19.50
2018-04-24T04:13:14.711Z,19.60
2018-04-24T04:13:52.095Z,19.60
2018-04-24T04:14:29.692Z,19.60
2018-04-24T04:15:07.179Z,19.60
2018-04-24T04:15:44.758Z,19.60
2018-04-24T04:16:22.391Z,19.70
2018-04-24T04:16:59.787Z,19.70
2018-04-24T04:17:38.096Z,19.70
2018-04-24T04:18:15.492Z,19.60
2018-04-24T04:18:53.092Z,19.60
2018-04-24T04:19:30.704Z,19.60
2018-04-24T04:20:08.247Z,19.60
2018-04-24T04:20:45.700Z,19.50
2018-04-24T04:21:23.212Z,19.60
2018-04-24T04:22:00.807Z,19.50
2018-04-24T04:22:38.235Z,19.50
2018-04-24T04:23:15.687Z,19.50
2018-04-24T04:23:53.215Z,19.60
2018-04-24T04:24:31.306Z,19.60
2018-04-24T04:25:08.738Z,19.60
2018-04-24T04:25:46.291Z,19.70
2018-04-24T04:26:24.549Z,19.70
2018-04-24T04:27:02.066Z,19.70
2018-04-24T04:27:39.675Z,19.70
2018-04-24T04:28:17.202Z,19.70
2018-04-24T04:28:54.583Z,19.70
2018-04-24T04:29:32.119Z,19.70
2018-04-24T04:30:09.697Z,19.80
2018-04-24T04:30:47.240Z,19.80
2018-04-24T04:31:24.775Z,19.80
2018-04-24T04:32:02.913Z,19.70
2018-04-24T04:32:40.391Z,19.70
2018-04-24T04:33:17.788Z,19.70
2018-04-24T04:33:55.371Z,19.80
2018-04-24T04:34:32.906Z,19.80
2018-04-24T04:35:10.437Z,19.70
2018-04-24T04:35:47.862Z,19.70
2018-04-24T04:36:25.395Z,19.80
2018-04-24T04:37:03.038Z,19.80
2018-04-24T04:37:40.663Z,19.80
2018-04-24T04:38:18.188Z,19.80
2018-04-24T04:38:55.689Z,19.80
2018-04-24T04:39:33.267Z,19.90
2018-04-24T04:40:10.818Z,19.90
2018-04-24T04:40:48.335Z,19.90
2018-04-24T04:41:25.915Z,19.90
2018-04-24T04:42:03.395Z,19.90
2018-04-24T04:42:40.747Z,19.90
2018-04-24T04:43:18.091Z,19.90
2018-04-24T04:43:55.622Z,19.90
2018-04-24T04:44:33.198Z,19.90
2018-04-24T04:45:10.681Z,19.90
2018-04-24T04:45:48.870Z,19.90
2018-04-24T04:46:27.272Z,19.90
2018-04-24T04:47:05.356Z,19.90
2018-04-24T04:47:42.856Z,19.90
2018-04-24T04:48:20.282Z,19.90
2018-04-24T04:48:57.871Z,19.90
2018-04-24T04:49:35.226Z,19.90
2018-04-24T04:50:12.796Z,19.90
2018-04-24T04:50:50.193Z,19.90
2018-04-24T04:51:27.751Z,19.80
2018-04-24T04:52:05.298Z,19.60
2018-04-24T04:52:42.917Z,19.50
2018-04-24T04:53:20.289Z,19.40
2018-04-24T04:53:57.667Z,19.40
2018-04-24T04:54:35.210Z,19.40
2018-04-24T04:55:12.702Z,19.40
2018-04-24T04:55:50.846Z,19.30
2018-04-24T04:56:29.215Z,19.20
2018-04-24T04:57:06.574Z,19.10
2018-04-24T04:57:44.166Z,19.20
2018-04-24T04:58:21.708Z,19.10
2018-04-24T04:58:59.282Z,19.10
2018-04-24T04:59:36.947Z,19.10
2018-04-24T05:00:14.529Z,19.00
2018-04-24T05:00:52.062Z,19.00
2018-04-24T05:01:29.613Z,19.00
2018-04-24T05:02:07.236Z,18.90
2018-04-24T05:02:44.833Z,19.00
2018-04-24T05:03:22.359Z,19.00
2018-04-24T05:03:59.965Z,19.00
2018-04-24T05:04:37.548Z,19.00
2018-04-24T05:05:15.274Z,19.00
2018-04-24T05:05:52.663Z,19.10
2018-04-24T05:06:30.245Z,19.20
2018-04-24T05:07:07.665Z,19.20
2018-04-24T05:07:46.046Z,19.30
2018-04-24T05:08:23.470Z,19.20
2018-04-24T05:09:01.047Z,19.20
2018-04-24T05:09:39.208Z,19.20
2018-04-24T05:10:16.809Z,19.20
2018-04-24T05:10:54.366Z,19.20
2018-04-24T05:11:31.955Z,19.30
2018-04-24T05:12:09.601Z,19.30
2018-04-24T05:12:46.896Z,19.30
2018-04-24T05:13:24.355Z,19.30
2018-04-24T05:14:01.942Z,19.20
2018-04-24T05:14:39.464Z,19.20
2018-04-24T05:15:17.024Z,19.10
2018-04-24T05:15:54.374Z,19.10
2018-04-24T05:16:31.886Z,19.20
2018-04-24T05:17:09.498Z,19.20
2018-04-24T05:17:47.680Z,19.20
2018-04-24T05:18:25.948Z,19.20
2018-04-24T05:19:04.077Z,19.30
2018-04-24T05:19:41.681Z,19.20
2018-04-24T05:20:19.215Z,19.20
2018-04-24T05:20:56.804Z,19.10
2018-04-24T05:21:34.408Z,19.00
2018-04-24T05:22:12.011Z,19.00
2018-04-24T05:22:49.542Z,19.10
2018-04-24T05:23:27.118Z,19.10
2018-04-24T05:24:04.469Z,19.10
2018-04-24T05:24:41.970Z,19.10
2018-04-24T05:25:19.540Z,19.20
2018-04-24T05:25:57.856Z,19.20
2018-04-24T05:26:35.442Z,19.10
2018-04-24T05:27:12.925Z,19.20
2018-04-24T05:27:50.528Z,19.20
2018-04-24T05:28:27.844Z,19.30
2018-04-24T05:29:05.449Z,19.30
2018-04-24T05:29:42.907Z,19.40
2018-04-24T05:30:21.031Z,19.40
2018-04-24T05:30:58.380Z,19.40
2018-04-24T05:31:35.696Z,19.50
2018-04-24T05:32:13.123Z,19.40
2018-04-24T05:32:50.553Z,19.40
2018-04-24T05:33:28.160Z,19.40
2018-04-24T05:34:05.689Z,19.40
2018-04-24T05:34:43.252Z,19.50
2018-04-24T05:35:20.784Z,19.50
2018-04-24T05:35:58.340Z,19.50
2018-04-24T05:36:35.925Z,19.50
2018-04-24T05:37:13.258Z,19.40
2018-04-24T05:37:50.795Z,19.40
2018-04-24T05:38:28.866Z,19.40
2018-04-24T05:39:07.000Z,19.30
2018-04-24T05:39:44.593Z,19.30
2018-04-24T05:40:22.107Z,19.20
2018-04-24T05:40:59.701Z,19.30
2018-04-24T05:41:37.308Z,19.30
2018-04-24T05:42:14.743Z,19.10
2018-04-24T05:42:52.313Z,19.20
2018-04-24T05:43:29.722Z,19.20
2018-04-24T05:44:07.078Z,19.20
2018-04-24T05:44:44.651Z,19.20
2018-04-24T05:45:22.089Z,19.20
2018-04-24T05:45:59.508Z,19.20
2018-04-24T05:46:36.838Z,19.20
2018-04-24T05:47:14.200Z,19.20
2018-04-24T05:47:51.539Z,19.30
2018-04-24T05:48:28.859Z,19.30
2018-04-24T05:49:06.416Z,19.40
2018-04-24T05:49:43.788Z,19.40
2018-04-24T05:50:21.374Z,19.40
2018-04-24T05:50:59.024Z,19.40
2018-04-24T05:51:37.431Z,19.20
2018-04-24T05:52:15.022Z,19.20
2018-04-24T05:52:52.361Z,19.20
2018-04-24T05:53:29.705Z,19.10
2018-04-24T05:54:07.199Z,19.20
2018-04-24T05:54:44.741Z,19.20
2018-04-24T05:55:22.278Z,19.30
2018-04-24T05:55:59.690Z,19.40
2018-04-24T05:56:37.322Z,19.40
2018-04-24T05:57:14.671Z,19.50
2018-04-24T05:57:52.302Z,19.50
2018-04-24T05:58:29.844Z,19.50
2018-04-24T05:59:07.330Z,19.40
2018-04-24T05:59:44.814Z,19.50
2018-04-24T06:00:22.392Z,19.60
2018-04-24T06:00:59.975Z,19.70
2018-04-24T06:01:37.529Z,19.70
2018-04-24T06:02:14.875Z,19.70
2018-04-24T06:02:52.388Z,19.60
2018-04-24T06:03:30.022Z,19.50
2018-04-24T06:04:07.563Z,19.40
2018-04-24T06:04:44.979Z,19.40
2018-04-24T06:05:22.370Z,19.40
2018-04-24T06:06:00.510Z,19.40
2018-04-24T06:06:38.790Z,19.40
2018-04-24T06:07:16.389Z,19.40
2018-04-24T06:07:53.939Z,19.40
2018-04-24T06:08:31.605Z,19.40
2018-04-24T06:09:09.170Z,19.40
2018-04-24T06:09:46.697Z,19.40
2018-04-24T06:10:24.976Z,19.30
2018-04-24T06:11:03.077Z,19.30
2018-04-24T06:11:40.562Z,19.30
2018-04-24T06:12:18.168Z,19.30
2018-04-24T06:12:55.644Z,19.30
2018-04-24T06:13:33.208Z,19.30
2018-04-24T06:14:10.793Z,19.40
2018-04-24T06:14:48.135Z,19.30
2018-04-24T06:15:25.763Z,19.40
2018-04-24T06:16:03.338Z,19.40
2018-04-24T06:16:40.921Z,19.40
2018-04-24T06:17:18.524Z,19.50
2018-04-24T06:17:56.686Z,19.40
2018-04-24T06:18:34.818Z,19.40
2018-04-24T06:19:12.358Z,19.40
2018-04-24T06:19:49.714Z,19.30
2018-04-24T06:20:27.305Z,19.20
2018-04-24T06:21:04.663Z,19.20
2018-04-24T06:21:43.013Z,19.10
2018-04-24T06:22:20.548Z,19.10
2018-04-24T06:22:58.173Z,19.10
2018-04-24T06:23:35.710Z,19.10
2018-04-24T06:24:13.256Z,19.10
2018-04-24T06:24:50.795Z,19.20
2018-04-24T06:25:28.200Z,19.20
2018-04-24T06:26:05.732Z,19.30
2018-04-24T06:26:43.328Z,19.40
2018-04-24T06:27:20.711Z,19.40
2018-04-24T06:27:58.072Z,19.40
2018-04-24T06:28:35.542Z,19.50
2018-04-24T06:29:13.062Z,19.40
2018-04-24T06:29:51.395Z,19.40
2018-04-24T06:30:28.889Z,19.40
2018-04-24T06:31:07.206Z,19.30
2018-04-24T06:31:44.779Z,19.30
2018-04-24T06:32:22.149Z,19.30
2018-04-24T06:32:59.470Z,19.40
2018-04-24T06:33:37.749Z,19.40
2018-04-24T06:34:16.052Z,19.40
2018-04-24T06:34:54.159Z,19.40
2018-04-24T06:35:31.596Z,19.40
2018-04-24T06:36:09.110Z,19.40
2018-04-24T06:36:46.707Z,19.30
2018-04-24T06:37:24.282Z,19.30
2018-04-24T06:38:01.601Z,19.40
2018-04-24T06:38:39.736Z,19.50
2018-04-24T06:39:17.310Z,19.50
2018-04-24T06:39:54.918Z,19.60
2018-04-24T06:40:32.498Z,19.60
2018-04-24T06:41:09.883Z,19.60
2018-04-24T06:41:47.557Z,19.60
2018-04-24T06:42:25.108Z,19.60
2018-04-24T06:43:02.661Z,19.60
2018-04-24T06:43:40.187Z,19.50
2018-04-24T06:44:17.779Z,19.60
2018-04-24T06:44:55.207Z,19.70
2018-04-24T06:45:32.745Z,19.80
2018-04-24T06:46:10.145Z,19.80
2018-04-24T06:46:47.544Z,19.90
2018-04-24T06:47:24.880Z,19.90
2018-04-24T06:48:02.466Z,19.80
2018-04-24T06:48:40.048Z,19.80
2018-04-24T06:49:17.601Z,19.80
2018-04-24T06:49:55.047Z,19.60
2018-04-24T06:50:32.673Z,19.60
2018-04-24T06:51:10.228Z,19.50
2018-04-24T06:51:48.332Z,19.40
2018-04-24T06:52:25.925Z,19.40
2018-04-24T06:53:03.480Z,19.50
2018-04-24T06:53:40.835Z,19.50
2018-04-24T06:54:18.380Z,19.40
2018-04-24T06:54:55.780Z,19.40
2018-04-24T06:55:34.005Z,19.40
2018-04-24T06:56:11.450Z,19.30
2018-04-24T06:56:48.949Z,19.30
2018-04-24T06:57:26.309Z,19.30
2018-04-24T06:58:04.675Z,19.30
2018-04-24T06:58:42.740Z,19.30
2018-04-24T06:59:20.094Z,19.20
2018-04-24T06:59:58.202Z,19.40
2018-04-24T07:00:35.824Z,19.30
2018-04-24T07:01:13.878Z,19.40
2018-04-24T07:01:51.996Z,19.40
2018-04-24T07:02:29.552Z,19.40
2018-04-24T07:03:07.155Z,19.40
2018-04-24T07:03:44.607Z,19.40
2018-04-24T07:04:22.115Z,19.30
2018-04-24T07:04:59.676Z,19.30
2018-04-24T07:05:37.230Z,19.30
2018-04-24T07:06:14.605Z,19.40
2018-04-24T07:06:52.142Z,19.30
2018-04-24T07:07:29.690Z,19.30
2018-04-24T07:08:07.043Z,19.20
2018-04-24T07:08:44.437Z,19.30
2018-04-24T07:09:22.088Z,19.30
2018-04-24T07:09:59.535Z,19.30
2018-04-24T07:10:37.126Z,19.20
2018-04-24T07:11:14.678Z,19.20
2018-04-24T07:11:52.271Z,19.20
2018-04-24T07:12:29.767Z,19.10
2018-04-24T07:13:08.019Z,19.20
2018-04-24T07:13:46.115Z,19.20
2018-04-24T07:14:23.747Z,19.20
2018-04-24T07:15:01.326Z,19.20
2018-04-24T07:15:38.738Z,19.10
2018-04-24T07:16:16.247Z,19.10
2018-04-24T07:16:53.866Z,19.10
2018-04-24T07:17:31.184Z,19.20
2018-04-24T07:18:08.560Z,19.20
2018-04-24T07:18:46.032Z,19.20
2018-04-24T07:19:24.158Z,19.10
2018-04-24T07:20:01.745Z,19.10
2018-04-24T07:20:39.330Z,19.20
2018-04-24T07:21:16.677Z,19.10
2018-04-24T07:21:54.317Z,19.10
2018-04-24T07:22:31.926Z,19.10
2018-04-24T07:23:09.395Z,19.10
2018-04-24T07:23:47.014Z,19.00
2018-04-24T07:24:24.623Z,19.00
2018-04-24T07:25:02.194Z,19.10
2018-04-24T07:25:39.768Z,19.10
2018-04-24T07:26:17.395Z,19.10
2018-04-24T07:26:54.955Z,19.10
2018-04-24T07:27:32.535Z,19.20
2018-04-24T07:28:10.202Z,19.20
2018-04-24T07:28:48.365Z,19.20
2018-04-24T07:29:25.928Z,19.20
2018-04-24T07:30:03.320Z,19.30
2018-04-24T07:30:41.630Z,19.40
2018-04-24T07:31:18.990Z,19.40
2018-04-24T07:31:56.326Z,19.40
2018-04-24T07:32:33.946Z,19.30
2018-04-24T07:33:11.411Z,19.40
2018-04-24T07:33:48.819Z,19.40
2018-04-24T07:34:26.148Z,19.50
2018-04-24T07:35:03.706Z,19.50
2018-04-24T07:35:41.279Z,19.60
2018-04-24T07:36:18.867Z,19.60
2018-04-24T07:36:56.471Z,19.60
2018-04-24T07:37:34.737Z,19.60
2018-04-24T07:38:12.301Z,19.60
2018-04-24T07:38:49.920Z,19.60
2018-04-24T07:39:27.530Z,19.60
2018-04-24T07:40:05.055Z,19.60
2018-04-24T07:40:42.640Z,19.60
2018-04-24T07:41:20.239Z,19.50
2018-04-24T07:41:57.786Z,19.40
2018-04-24T07:42:35.448Z,19.30
2018-04-24T07:43:13.069Z,19.30
2018-04-24T07:43:50.650Z,19.40
2018-04-24T07:44:28.238Z,19.40
2018-04-24T07:45:05.672Z,19.40
2018-04-24T07:45:44.017Z,19.40
2018-04-24T07:46:22.283Z,19.50
2018-04-24T07:46:59.875Z,19.50
2018-04-24T07:47:37.478Z,19.50
2018-04-24T07:48:15.736Z,19.50
2018-04-24T07:48:53.330Z,19.50
2018-04-24T07:49:31.655Z,19.50
2018-04-24T07:50:09.017Z,19.50
2018-04-24T07:50:46.603Z,19.50
2018-04-24T07:51:24.193Z,19.50
2018-04-24T07:52:02.292Z,19.50
2018-04-24T07:52:39.569Z,19.40
2018-04-24T07:53:17.099Z,19.50
2018-04-24T07:53:55.415Z,19.40
2018-04-24T07:54:33.703Z,19.40
2018-04-24T07:55:11.062Z,19.40
2018-04-24T07:55:48.679Z,19.50
2018-04-24T07:56:26.303Z,19.40
2018-04-24T07:57:03.832Z,19.30
2018-04-24T07:57:41.685Z,19.30
2018-04-24T07:58:19.172Z,19.40
2018-04-24T07:58:57.291Z,19.30
2018-04-24T07:59:34.901Z,19.30
2018-04-24T08:00:12.528Z,19.40
2018-04-24T08:00:49.943Z,19.30
2018-04-24T08:01:27.547Z,19.30
2018-04-24T08:02:05.810Z,19.30
2018-04-24T08:02:44.124Z,19.30
2018-04-24T08:03:21.725Z,19.30
2018-04-24T08:03:59.167Z,19.30
2018-04-24T08:04:37.298Z,19.50